createdAt,value
2023-04-16T00:01:09.120Z,10.13
2023-04-16T00:04:13.102Z,11.80
2023-04-16T00:17:06.768Z,16.77
2023-04-16T00:19:53.317Z,13.63
2023-04-16T00:22:40.066Z,12.80
2023-04-16T00:25:26.681Z,13.23
2023-04-16T00:28:17.345Z,11.15
2023-04-16T00:31:13.588Z,11.52
2023-04-16T00:34:29.639Z,14.82
2023-04-16T00:37:16.562Z,15.43
2023-04-16T00:40:02.745Z,12.23
2023-04-16T00:43:02.461Z,13.68
2023-04-16T00:45:51.372Z,12.23
2023-04-16T00:48:38.354Z,15.30
2023-04-16T00:51:24.239Z,14.43
2023-04-16T00:54:13.644Z,16.92
2023-04-16T00:57:16.644Z,19.20
2023-04-16T01:00:21.240Z,15.88
2023-04-16T01:03:07.806Z,14.88
2023-04-16T01:06:00.771Z,16.73
2023-04-16T01:08:55.796Z,19.13
2023-04-16T01:11:59.338Z,14.63
2023-04-16T01:14:45.939Z,19.67
2023-04-16T01:17:46.365Z,12.82
2023-04-16T01:20:41.505Z,8.82
2023-04-16T01:23:31.909Z,8.15
2023-04-16T01:26:21.797Z,9.32
2023-04-16T01:29:08.209Z,10.02
2023-04-16T01:31:57.085Z,13.32
2023-04-16T01:34:55.369Z,9.45
2023-04-16T01:37:41.627Z,7.38
2023-04-16T01:40:48.406Z,8.77
2023-04-16T01:43:34.589Z,9.75
2023-04-16T01:46:31.833Z,10.98
2023-04-16T01:49:18.259Z,8.65
2023-04-16T01:52:04.249Z,9.93
2023-04-16T01:54:50.848Z,8.88
2023-04-16T01:57:37.034Z,9.43
2023-04-16T02:00:23.317Z,7.95
2023-04-16T02:03:12.412Z,9.10
2023-04-16T02:05:58.542Z,13.30
2023-04-16T02:08:44.388Z,9.32
2023-04-16T02:11:30.465Z,10.68
2023-04-16T02:14:17.073Z,9.93
2023-04-16T02:17:02.850Z,11.85
2023-04-16T02:20:08.462Z,8.50
2023-04-16T02:22:57.324Z,8.40
2023-04-16T02:25:46.316Z,12.95
2023-04-16T02:28:34.415Z,10.68
2023-04-16T02:31:22.496Z,7.25
2023-04-16T02:34:09.108Z,9.10
2023-04-16T02:36:55.666Z,6.35
2023-04-16T02:39:43.072Z,9.55
2023-04-16T02:42:29.250Z,7.97
2023-04-16T02:45:18.078Z,7.50
2023-04-16T02:48:06.494Z,6.20
2023-04-16T02:50:52.418Z,9.05
2023-04-16T02:53:38.425Z,9.90
2023-04-16T02:56:24.208Z,8.00
2023-04-16T02:59:10.376Z,7.63
2023-04-16T03:01:57.029Z,10.10
2023-04-16T03:04:42.844Z,7.55
2023-04-16T03:07:28.632Z,9.30
2023-04-16T03:10:14.793Z,15.07
2023-04-16T03:13:00.777Z,11.98
2023-04-16T03:15:50.219Z,8.05
2023-04-16T03:18:36.177Z,9.23
2023-04-16T03:21:21.882Z,14.30
2023-04-16T03:24:07.774Z,8.90
2023-04-16T03:26:53.999Z,11.32
2023-04-16T03:29:42.456Z,9.27
2023-04-16T03:32:28.910Z,11.68
2023-04-16T03:35:15.305Z,11.60
2023-04-16T03:38:01.197Z,5.88
2023-04-16T03:40:50.237Z,7.80
2023-04-16T03:43:36.860Z,8.07
2023-04-16T03:46:23.786Z,7.72
2023-04-16T03:49:10.619Z,15.00
2023-04-16T03:51:56.770Z,6.28
2023-04-16T03:54:44.751Z,14.65
2023-04-16T04:00:32.400Z,25.30
2023-04-16T04:03:29.679Z,16.42
2023-04-16T04:06:16.527Z,19.02
2023-04-16T04:09:02.817Z,10.25
2023-04-16T04:11:52.290Z,21.55
2023-04-16T04:14:40.312Z,12.93
2023-04-16T04:17:50.271Z,16.48
2023-04-16T04:20:44.199Z,21.85
2023-04-16T04:26:36.666Z,10.75
2023-04-16T04:29:23.004Z,11.65
2023-04-16T04:32:09.521Z,17.15
2023-04-16T04:35:08.610Z,12.75
2023-04-16T04:38:03.103Z,13.80
2023-04-16T04:40:57.878Z,13.93
2023-04-16T04:43:53.410Z,10.88
2023-04-16T04:46:44.822Z,14.07
2023-04-16T04:52:40.154Z,11.60
2023-04-16T04:55:29.536Z,22.58
2023-04-16T04:58:18.991Z,24.88
2023-04-16T05:01:22.512Z,19.58
2023-04-16T05:18:43.576Z,14.07
2023-04-16T05:21:31.205Z,9.27
2023-04-16T05:27:03.773Z,10.00
2023-04-16T05:29:49.716Z,15.60
2023-04-16T05:32:38.794Z,9.45
2023-04-16T05:35:27.751Z,9.48
2023-04-16T05:38:14.091Z,14.15
2023-04-16T05:41:00.155Z,7.60
2023-04-16T05:43:46.449Z,7.80
2023-04-16T06:09:05.887Z,11.93
2023-04-16T06:11:52.242Z,6.97
2023-04-16T06:14:38.080Z,6.93
2023-04-16T06:17:23.974Z,9.63
2023-04-16T06:20:11.252Z,8.45
2023-04-16T06:25:43.619Z,10.90
2023-04-16T06:28:29.494Z,11.85
2023-04-16T06:31:15.209Z,6.80
2023-04-16T06:34:00.803Z,10.73
2023-04-16T06:36:48.833Z,7.00
2023-04-16T06:39:34.241Z,9.95
2023-04-16T06:42:27.462Z,9.98
2023-04-16T06:45:13.686Z,8.30
2023-04-16T06:47:59.839Z,8.50
2023-04-16T06:50:45.821Z,10.63
2023-04-16T06:53:31.421Z,13.43
2023-04-16T06:56:17.177Z,7.00
2023-04-16T06:59:03.106Z,6.35
2023-04-16T07:01:49.172Z,9.15
2023-04-16T07:04:34.850Z,6.22
2023-04-16T07:07:20.799Z,8.13
2023-04-16T07:10:06.749Z,6.05
2023-04-16T07:12:52.211Z,9.50
2023-04-16T07:15:37.805Z,8.15
2023-04-16T07:18:23.374Z,8.48
2023-04-16T07:21:08.923Z,5.78
2023-04-16T07:23:54.716Z,8.05
2023-04-16T07:26:40.520Z,8.68
2023-04-16T07:29:26.242Z,8.57
2023-04-16T07:32:14.847Z,11.48
2023-04-16T07:35:01.231Z,5.50
2023-04-16T07:37:46.918Z,12.45
2023-04-16T07:40:32.979Z,11.98
2023-04-16T07:46:04.602Z,8.52
2023-04-16T07:48:52.149Z,10.77
2023-04-16T07:51:37.792Z,10.25
2023-04-16T07:54:29.779Z,7.50
2023-04-16T07:57:23.084Z,9.65
2023-04-16T08:00:09.321Z,17.25
2023-04-16T08:03:03.716Z,16.90
2023-04-16T08:05:52.258Z,14.85
2023-04-16T08:08:38.145Z,28.60
2023-04-16T08:11:24.392Z,30.73
2023-04-16T08:14:10.335Z,20.02
2023-04-16T08:16:56.976Z,13.82
2023-04-16T08:19:43.191Z,9.50
2023-04-16T08:22:29.442Z,9.25
2023-04-16T08:25:15.569Z,10.38
2023-04-16T08:28:01.282Z,12.35
2023-04-16T08:30:47.094Z,12.60
2023-04-16T08:33:32.744Z,19.65
2023-04-16T08:36:18.422Z,12.23
2023-04-16T08:39:04.160Z,14.38
2023-04-16T08:41:50.144Z,8.70
2023-04-16T08:44:37.811Z,9.50
2023-04-16T08:47:25.389Z,10.23
2023-04-16T08:50:12.689Z,12.10
2023-04-16T08:52:59.645Z,14.32
2023-04-16T08:55:49.518Z,10.23
2023-04-16T08:58:36.745Z,11.27
2023-04-16T09:01:22.835Z,16.85
2023-04-16T09:04:09.279Z,13.40
2023-04-16T09:06:58.699Z,8.52
2023-04-16T09:09:45.334Z,14.15
2023-04-16T09:12:31.407Z,13.02
2023-04-16T09:15:17.418Z,10.23
2023-04-16T09:18:05.639Z,10.98
2023-04-16T09:20:52.089Z,12.30
2023-04-16T09:23:38.869Z,9.52
2023-04-16T09:26:24.439Z,8.98
2023-04-16T09:29:10.427Z,8.73
2023-04-16T09:32:05.517Z,6.88
2023-04-16T09:34:57.625Z,10.30
2023-04-16T09:37:43.507Z,7.32
2023-04-16T09:40:32.360Z,12.40
2023-04-16T09:43:18.723Z,7.05
2023-04-16T09:46:08.096Z,7.13
2023-04-16T09:48:56.528Z,9.45
2023-04-16T09:51:45.495Z,6.38
2023-04-16T09:54:31.494Z,5.88
2023-04-16T09:57:24.499Z,7.70
2023-04-16T10:00:11.308Z,5.97
2023-04-16T10:03:05.343Z,5.70
2023-04-16T10:05:53.683Z,6.47
2023-04-16T10:08:44.442Z,9.10
2023-04-16T10:11:30.993Z,4.93
2023-04-16T10:14:20.049Z,6.10
2023-04-16T10:17:08.557Z,4.18
2023-04-16T10:19:54.763Z,5.35
2023-04-16T10:22:40.362Z,4.40
2023-04-16T10:25:26.338Z,5.32
2023-04-16T10:28:11.949Z,3.90
2023-04-16T10:30:58.339Z,6.68
2023-04-16T10:33:44.318Z,5.38
2023-04-16T10:36:29.834Z,6.60
2023-04-16T10:39:18.037Z,6.10
2023-04-16T10:42:11.800Z,8.13
2023-04-16T10:45:00.083Z,5.03
2023-04-16T10:47:46.274Z,6.85
2023-04-16T10:53:24.742Z,7.43
2023-04-16T10:56:12.737Z,10.18
2023-04-16T10:58:58.883Z,7.97
2023-04-16T11:01:44.804Z,4.00
2023-04-16T11:04:34.281Z,10.45
2023-04-16T11:07:21.114Z,5.30
2023-04-16T11:10:07.373Z,6.93
